Boyceville, Wisconsin
Current Conditions -  °F | °C
As of 3:55 PM on Saturday 25 Oct 2014 (Local Time) from KLUM Reporting Station
Clear Clear  
Wind Chill: 63°   Ceiling: Unl
Heat Index: 63°   Visibility: 10mi
Dew Point: 24°   Wind: 16mph
Humidity: 23%   Direction: 270°W
Pressure: 29.99"   Gusts: 25mph
Location:  45.04°N, 92.04°W
Report Text: KLUM 252055Z AUTO 27014G22KT 10SM CLR 17/M04 A2999 RMK AO2 T01711042
Loading
Personal Weather Stations






























Interactive Weather Map
Tropical Storm Tracking
New forecast layout! Learn more

10-Day Weather Forecast

Advertisements
Track Severe Weather on mobile